createdAt,value
2022-11-03T00:01:46.986Z,100641.00
2022-11-03T00:04:50.058Z,100635.28
2022-11-03T00:07:52.788Z,100632.75
2022-11-03T00:11:02.546Z,100637.50
2022-11-03T00:14:06.477Z,100633.75
2022-11-03T00:17:09.485Z,100628.94
2022-11-03T00:20:12.336Z,100626.31
2022-11-03T00:23:15.296Z,100632.41
2022-11-03T00:26:21.772Z,100623.69
2022-11-03T00:29:25.142Z,100626.53
2022-11-03T00:32:27.841Z,100621.81
2022-11-03T00:35:30.976Z,100617.88
2022-11-03T00:38:34.304Z,100620.22
2022-11-03T00:41:39.108Z,100623.50
2022-11-03T00:44:43.036Z,100626.00
2022-11-03T00:48:04.434Z,100626.59
2022-11-03T00:51:13.169Z,100630.69
2022-11-03T00:54:16.203Z,100627.88
2022-11-03T00:57:19.463Z,100625.50
2022-11-03T01:00:22.468Z,100627.41
2022-11-03T01:03:25.186Z,100631.38
2022-11-03T01:06:46.722Z,100634.22
2022-11-03T01:09:49.449Z,100630.03
2022-11-03T01:12:52.446Z,100630.97
2022-11-03T01:15:59.083Z,100635.81
2022-11-03T01:19:02.429Z,100632.66
2022-11-03T01:22:09.545Z,100628.13
2022-11-03T01:25:14.330Z,100632.28
2022-11-03T01:28:17.100Z,100625.53
2022-11-03T01:31:22.490Z,100630.84
2022-11-03T01:34:25.368Z,100631.84
2022-11-03T01:37:28.400Z,100620.69
2022-11-03T01:40:32.170Z,100623.31
2022-11-03T01:43:35.546Z,100624.63
2022-11-03T01:46:41.361Z,100619.13
2022-11-03T01:49:49.269Z,100610.78
2022-11-03T01:52:56.482Z,100604.13
2022-11-03T01:55:59.791Z,100620.69
2022-11-03T01:59:03.471Z,100614.16
2022-11-03T02:02:06.730Z,100614.62
2022-11-03T02:05:11.135Z,100606.81
2022-11-03T02:08:21.572Z,100608.28
2022-11-03T02:11:44.459Z,100614.16
2022-11-03T02:15:15.416Z,100602.31
2022-11-03T02:18:20.378Z,100602.31
2022-11-03T02:21:35.847Z,100608.31
2022-11-03T02:24:38.813Z,100612.34
2022-11-03T02:27:42.150Z,100610.56
2022-11-03T02:31:07.658Z,100606.84
2022-11-03T02:34:20.578Z,100607.06
2022-11-03T02:37:27.379Z,100604.47
2022-11-03T02:40:36.587Z,100606.72
2022-11-03T02:43:40.027Z,100607.84
2022-11-03T02:46:44.821Z,100613.03
2022-11-03T02:49:49.815Z,100599.72
2022-11-03T02:52:52.893Z,100603.00
2022-11-03T02:56:01.234Z,100601.59
2022-11-03T02:59:10.366Z,100595.66
2022-11-03T03:02:18.632Z,100596.66
2022-11-03T03:05:23.978Z,100595.41
2022-11-03T03:08:27.604Z,100597.22
2022-11-03T03:11:39.883Z,100593.84
2022-11-03T03:14:45.013Z,100588.06
2022-11-03T03:18:03.295Z,100595.28
2022-11-03T03:21:23.327Z,100598.28
2022-11-03T03:24:38.273Z,100586.34
2022-11-03T03:27:45.909Z,100570.91
2022-11-03T03:30:51.966Z,100570.78
2022-11-03T03:34:04.333Z,100576.31
2022-11-03T03:37:09.255Z,100578.56
2022-11-03T03:40:16.461Z,100573.19
2022-11-03T03:43:20.440Z,100576.88
2022-11-03T03:46:26.695Z,100566.97
2022-11-03T03:49:29.725Z,100570.38
2022-11-03T03:52:34.455Z,100559.69
2022-11-03T03:55:40.813Z,100558.00
2022-11-03T03:58:43.523Z,100558.66
2022-11-03T04:01:46.626Z,100555.87
2022-11-03T04:04:49.977Z,100557.38
2022-11-03T04:07:53.127Z,100553.53
2022-11-03T04:11:14.885Z,100554.91
2022-11-03T04:14:36.338Z,100545.09
2022-11-03T04:18:02.260Z,100544.44
2022-11-03T04:21:24.382Z,100538.44
2022-11-03T04:24:30.077Z,100529.44
2022-11-03T04:27:38.043Z,100534.75
2022-11-03T04:30:41.231Z,100539.34
2022-11-03T04:33:44.966Z,100535.13
2022-11-03T04:36:48.252Z,100546.28
2022-11-03T04:39:51.183Z,100530.94
2022-11-03T04:42:54.428Z,100543.78
2022-11-03T04:45:57.193Z,100542.19
2022-11-03T04:49:02.147Z,100544.69
2022-11-03T04:52:25.454Z,100530.53
2022-11-03T04:55:28.529Z,100525.47
2022-11-03T04:58:35.638Z,100519.94
2022-11-03T05:01:38.955Z,100524.16
2022-11-03T05:04:42.501Z,100526.59
2022-11-03T05:07:51.877Z,100534.66
2022-11-03T05:10:54.897Z,100528.78
2022-11-03T05:14:03.535Z,100513.69
2022-11-03T05:17:23.926Z,100514.00
2022-11-03T05:20:37.723Z,100511.00
2022-11-03T05:23:45.231Z,100524.00
2022-11-03T05:26:48.881Z,100541.16
2022-11-03T05:29:55.181Z,100562.41
2022-11-03T05:33:02.095Z,100556.50
2022-11-03T05:36:12.979Z,100554.94
2022-11-03T05:39:35.470Z,100562.72
2022-11-03T05:42:40.545Z,100562.06
2022-11-03T05:45:43.683Z,100559.06
2022-11-03T05:48:46.561Z,100544.84
2022-11-03T05:51:50.001Z,100555.94
2022-11-03T05:54:57.326Z,100570.06
2022-11-03T05:58:05.810Z,100568.91
2022-11-03T06:01:33.357Z,100566.37
2022-11-03T06:04:40.885Z,100564.25
2022-11-03T06:07:43.729Z,100562.50
2022-11-03T06:10:50.610Z,100559.75
2022-11-03T06:13:54.837Z,100555.63
2022-11-03T06:17:07.866Z,100567.25
2022-11-03T06:20:17.038Z,100561.22
2022-11-03T06:23:21.273Z,100568.50
2022-11-03T06:26:26.813Z,100566.50
2022-11-03T06:29:32.868Z,100569.09
2022-11-03T06:32:35.584Z,100569.94
2022-11-03T06:35:38.645Z,100576.06
2022-11-03T06:38:41.518Z,100575.41
2022-11-03T06:41:44.706Z,100574.72
2022-11-03T06:44:54.962Z,100578.31
2022-11-03T06:48:12.233Z,100581.47
2022-11-03T06:51:36.528Z,100584.72
2022-11-03T06:54:40.506Z,100584.72
2022-11-03T06:57:46.096Z,100590.69
2022-11-03T07:00:51.738Z,100598.94
2022-11-03T07:03:58.549Z,100597.16
2022-11-03T07:07:03.285Z,100600.97
2022-11-03T07:10:06.507Z,100603.19
2022-11-03T07:13:24.762Z,100606.31
2022-11-03T07:16:30.340Z,100615.25
2022-11-03T07:19:40.260Z,100609.97
2022-11-03T07:22:44.400Z,100613.81
2022-11-03T07:25:54.699Z,100616.31
2022-11-03T07:29:00.171Z,100614.50
2022-11-03T07:32:11.266Z,100613.91
2022-11-03T07:35:17.728Z,100608.88
2022-11-03T07:38:22.738Z,100608.50
2022-11-03T07:41:31.298Z,100611.47
2022-11-03T07:44:37.113Z,100616.25
2022-11-03T07:47:39.816Z,100607.69
2022-11-03T07:50:42.960Z,100603.37
2022-11-03T07:53:48.134Z,100602.16
2022-11-03T07:56:54.089Z,100599.16
2022-11-03T08:00:10.457Z,100600.63
2022-11-03T08:03:47.037Z,100597.75
2022-11-03T08:06:50.150Z,100594.28
2022-11-03T08:09:52.906Z,100594.66
2022-11-03T08:12:55.910Z,100585.69
2022-11-03T08:15:59.287Z,100576.69
2022-11-03T08:19:02.603Z,100581.69
2022-11-03T08:22:05.838Z,100574.38
2022-11-03T08:25:09.025Z,100571.66
2022-11-03T08:28:11.789Z,100573.66
2022-11-03T08:31:15.031Z,100576.03
2022-11-03T08:34:17.749Z,100564.72
2022-11-03T08:37:20.817Z,100566.34
2022-11-03T08:40:23.951Z,100565.81
2022-11-03T08:43:27.021Z,100561.78
2022-11-03T08:46:29.907Z,100566.78
2022-11-03T08:49:32.909Z,100562.81
2022-11-03T08:52:35.780Z,100561.38
2022-11-03T08:55:38.946Z,100563.53
2022-11-03T08:58:43.555Z,100573.22
2022-11-03T09:01:47.620Z,100561.50
2022-11-03T09:04:50.377Z,100547.84
2022-11-03T09:11:16.179Z,100552.97
2022-11-03T09:14:19.198Z,100554.97
2022-11-03T09:17:22.012Z,100551.22
2022-11-03T09:20:26.878Z,100550.50
2022-11-03T09:23:29.666Z,100545.75
2022-11-03T09:26:33.319Z,100550.91
2022-11-03T09:29:58.406Z,100549.94
2022-11-03T09:32:59.161Z,100550.16
2022-11-03T09:36:02.481Z,100541.03
2022-11-03T09:39:05.501Z,100540.28
2022-11-03T09:42:08.429Z,100539.22
2022-11-03T09:45:11.873Z,100535.00
2022-11-03T09:48:14.771Z,100524.94
2022-11-03T09:51:22.092Z,100519.28
2022-11-03T09:54:27.988Z,100506.75
2022-11-03T09:57:31.633Z,100508.31
2022-11-03T10:00:34.764Z,100505.72
2022-11-03T10:03:39.331Z,100498.37
2022-11-03T10:06:42.082Z,100486.00
2022-11-03T10:09:48.014Z,100476.28
2022-11-03T10:12:53.253Z,100471.94
2022-11-03T10:16:00.099Z,100470.81
2022-11-03T10:19:02.801Z,100463.06
2022-11-03T10:22:05.760Z,100469.00
2022-11-03T10:25:29.876Z,100455.28
2022-11-03T10:28:32.687Z,100451.47
2022-11-03T10:31:40.865Z,100441.47
2022-11-03T10:34:43.959Z,100435.25
2022-11-03T10:37:47.073Z,100434.06
2022-11-03T10:40:50.253Z,100425.84
2022-11-03T10:44:13.053Z,100425.09
2022-11-03T10:47:34.503Z,100414.16
2022-11-03T10:50:40.201Z,100417.28
2022-11-03T10:53:43.272Z,100399.72
2022-11-03T10:56:47.569Z,100393.84
2022-11-03T10:59:53.186Z,100398.91
2022-11-03T11:03:00.037Z,100380.50
2022-11-03T11:06:04.345Z,100384.84
2022-11-03T11:09:10.146Z,100377.81
2022-11-03T11:12:16.176Z,100374.28
2022-11-03T11:15:40.856Z,100361.78
2022-11-03T11:18:44.527Z,100363.75
2022-11-03T11:21:47.867Z,100371.81
2022-11-03T11:24:50.805Z,100368.50
2022-11-03T11:27:58.209Z,100369.56
2022-11-03T11:31:01.796Z,100353.50
2022-11-03T11:34:10.682Z,100355.44
2022-11-03T11:37:13.756Z,100347.06
2022-11-03T11:40:25.583Z,100352.59
2022-11-03T11:43:28.820Z,100349.66
2022-11-03T11:46:40.019Z,100343.25
2022-11-03T11:49:43.058Z,100341.25
2022-11-03T11:53:05.427Z,100341.41
2022-11-03T11:56:12.027Z,100329.34
2022-11-03T11:59:25.992Z,100326.72
2022-11-03T12:02:31.285Z,100331.69
2022-11-03T12:05:35.808Z,100319.00
2022-11-03T12:08:38.596Z,100319.69
2022-11-03T12:11:48.335Z,100317.25
2022-11-03T12:14:52.121Z,100314.81
2022-11-03T12:17:55.166Z,100314.00
2022-11-03T12:20:58.195Z,100315.34
2022-11-03T12:24:01.212Z,100312.09
2022-11-03T12:27:18.438Z,100305.09
2022-11-03T12:30:21.913Z,100301.78
2022-11-03T12:33:24.581Z,100290.53
2022-11-03T12:36:27.915Z,100295.09
2022-11-03T12:39:30.499Z,100291.44
2022-11-03T12:42:35.197Z,100288.13
2022-11-03T12:45:37.795Z,100287.47
2022-11-03T12:48:44.911Z,100282.00
2022-11-03T12:51:47.651Z,100281.72
2022-11-03T12:54:51.702Z,100264.75
2022-11-03T12:57:54.436Z,100260.81
2022-11-03T13:01:01.341Z,100262.66
2022-11-03T13:04:06.259Z,100263.63
2022-11-03T13:07:09.603Z,100263.78
2022-11-03T13:10:12.330Z,100255.94
2022-11-03T13:13:15.312Z,100246.59
2022-11-03T13:16:18.193Z,100254.03
2022-11-03T13:19:21.218Z,100248.56
2022-11-03T13:22:24.007Z,100248.19
2022-11-03T13:25:28.688Z,100251.31
2022-11-03T13:28:31.547Z,100247.78
2022-11-03T13:31:35.883Z,100243.09
2022-11-03T13:34:39.100Z,100237.25
2022-11-03T13:37:42.364Z,100232.19
2022-11-03T13:41:07.001Z,100227.84
2022-11-03T13:44:08.987Z,100228.59
2022-11-03T13:47:12.041Z,100215.69
2022-11-03T13:50:15.678Z,100212.94
2022-11-03T14:00:05.744Z,100203.72
2022-11-03T14:06:37.978Z,100196.25
2022-11-03T14:09:40.915Z,100188.91
2022-11-03T14:12:43.971Z,100190.78
2022-11-03T14:15:46.688Z,100192.75
2022-11-03T14:18:49.744Z,100198.12
2022-11-03T14:21:52.531Z,100189.19
2022-11-03T14:24:55.990Z,100190.34
2022-11-03T14:27:58.698Z,100190.78
2022-11-03T14:31:03.791Z,100183.81
2022-11-03T14:34:06.578Z,100187.28
2022-11-03T14:37:10.185Z,100184.56
2022-11-03T14:40:32.908Z,100179.44
2022-11-03T14:43:35.929Z,100180.06
2022-11-03T14:46:38.757Z,100174.56
2022-11-03T14:49:42.024Z,100169.44
2022-11-03T14:52:44.793Z,100155.66
2022-11-03T14:55:47.870Z,100162.13
2022-11-03T14:58:50.849Z,100147.28
2022-11-03T15:01:54.695Z,100151.47
2022-11-03T15:04:57.567Z,100154.12
2022-11-03T15:08:00.537Z,100150.62
2022-11-03T15:11:07.902Z,100145.22
2022-11-03T15:14:12.662Z,100141.34
2022-11-03T15:17:15.611Z,100132.22
2022-11-03T15:20:18.474Z,100132.53
2022-11-03T15:26:45.008Z,100124.97
2022-11-03T15:29:47.737Z,100127.19
2022-11-03T15:32:50.881Z,100114.69
2022-11-03T15:35:54.128Z,100115.72
2022-11-03T15:38:57.002Z,100110.94
2022-11-03T15:42:00.784Z,100110.25
2022-11-03T15:45:04.181Z,100108.16
2022-11-03T15:48:07.706Z,100102.72
2022-11-03T15:51:12.296Z,100100.00
2022-11-03T15:54:15.240Z,100095.28
2022-11-03T15:57:18.740Z,100098.22
2022-11-03T16:00:21.576Z,100091.59
2022-11-03T16:03:24.839Z,100085.84
2022-11-03T16:07:01.210Z,100082.25
2022-11-03T16:09:51.415Z,100076.78
2022-11-03T16:12:54.278Z,100075.31
2022-11-03T16:15:58.490Z,100072.09
2022-11-03T16:19:01.347Z,100071.44
2022-11-03T16:22:04.528Z,100076.41
2022-11-03T16:25:12.356Z,100076.78
2022-11-03T16:28:18.121Z,100067.44
2022-11-03T16:31:21.018Z,100066.12
2022-11-03T16:34:24.530Z,100068.91
2022-11-03T16:37:29.392Z,100078.56
2022-11-03T16:40:32.798Z,100089.84
2022-11-03T16:43:35.744Z,100076.28
2022-11-03T16:46:39.094Z,100068.84
2022-11-03T16:49:41.974Z,100081.22
2022-11-03T16:52:46.511Z,100077.66
2022-11-03T16:55:49.807Z,100083.72
2022-11-03T16:58:53.032Z,100081.50
2022-11-03T17:01:57.767Z,100084.94
2022-11-03T17:05:03.562Z,100073.44
2022-11-03T17:08:20.475Z,100073.44
2022-11-03T17:11:36.609Z,100090.94
2022-11-03T17:14:39.843Z,100092.03
2022-11-03T17:17:43.408Z,100097.13
2022-11-03T17:20:47.522Z,100090.56
2022-11-03T17:23:52.427Z,100084.72
2022-11-03T17:27:34.043Z,100090.47
2022-11-03T17:30:40.478Z,100076.69
2022-11-03T17:33:43.400Z,100069.69
2022-11-03T17:36:46.590Z,100061.03
2022-11-03T17:39:50.161Z,100070.03
2022-11-03T17:42:53.997Z,100064.69
2022-11-03T17:45:57.318Z,100055.41
2022-11-03T17:49:00.739Z,100051.44
2022-11-03T17:52:03.729Z,100039.31
2022-11-03T17:55:19.918Z,100049.56
2022-11-03T17:58:29.746Z,100036.03
2022-11-03T18:01:36.430Z,100025.00
2022-11-03T18:04:40.551Z,100036.47
2022-11-03T18:07:43.688Z,100027.97
2022-11-03T18:10:49.382Z,100023.59
2022-11-03T18:13:53.008Z,100025.53
2022-11-03T18:16:57.234Z,100025.38
2022-11-03T18:20:29.614Z,100013.69
2022-11-03T18:23:35.960Z,100004.75
2022-11-03T18:26:39.895Z,100002.84
2022-11-03T18:29:43.622Z,100002.91
2022-11-03T18:32:47.085Z,99999.41
2022-11-03T18:35:51.720Z,99995.28
2022-11-03T18:38:56.967Z,99988.44
2022-11-03T18:42:00.539Z,99975.25
2022-11-03T18:45:15.372Z,99971.75
2022-11-03T18:48:21.868Z,99978.00
2022-11-03T18:51:25.358Z,99958.59
2022-11-03T18:54:31.801Z,99958.69
2022-11-03T18:57:36.955Z,99961.91
2022-11-03T19:00:40.807Z,99964.16
2022-11-03T19:03:44.272Z,99949.94
2022-11-03T19:06:54.347Z,99935.19
2022-11-03T19:09:59.044Z,99921.75
2022-11-03T19:13:14.016Z,99897.50
2022-11-03T19:16:22.444Z,99899.81
2022-11-03T19:19:27.390Z,99903.56
2022-11-03T19:22:30.808Z,99898.78
2022-11-03T19:25:35.531Z,99900.84
2022-11-03T19:28:45.048Z,99900.88
2022-11-03T19:31:49.912Z,99887.34
2022-11-03T19:35:01.071Z,99896.28
2022-11-03T19:38:07.694Z,99904.09
2022-11-03T19:41:35.577Z,99892.03
2022-11-03T19:44:39.608Z,99894.06
2022-11-03T19:48:10.748Z,99880.88
2022-11-03T19:51:13.551Z,99871.97
2022-11-03T19:54:19.105Z,99855.03
2022-11-03T19:57:22.921Z,99861.97
2022-11-03T20:00:26.821Z,99855.50
2022-11-03T20:03:31.017Z,99855.09
2022-11-03T20:06:37.390Z,99852.75
2022-11-03T20:09:41.436Z,99850.41
2022-11-03T20:12:45.662Z,99844.16
2022-11-03T20:15:51.266Z,99842.56
2022-11-03T20:18:56.166Z,99835.63
2022-11-03T20:22:00.699Z,99841.75
2022-11-03T20:25:05.895Z,99831.72
2022-11-03T20:28:17.016Z,99832.84
2022-11-03T20:31:20.342Z,99830.06
2022-11-03T20:34:23.723Z,99828.97
2022-11-03T20:37:27.068Z,99811.84
2022-11-03T20:40:33.522Z,99811.84
2022-11-03T20:43:42.873Z,99802.63
2022-11-03T20:46:46.498Z,99805.78
2022-11-03T20:49:50.991Z,99801.97
2022-11-03T20:52:54.646Z,99801.22
2022-11-03T20:55:58.906Z,99794.25
2022-11-03T20:59:03.092Z,99800.12
2022-11-03T21:02:13.383Z,99807.84
2022-11-03T21:05:27.892Z,99802.81
2022-11-03T21:08:31.588Z,99819.91
2022-11-03T21:11:36.996Z,99813.66
2022-11-03T21:14:40.301Z,99815.63
2022-11-03T21:18:03.191Z,99817.56
2022-11-03T21:21:10.880Z,99826.03
2022-11-03T21:24:14.889Z,99821.75
2022-11-03T21:27:17.605Z,99823.31
2022-11-03T21:30:22.469Z,99815.53
2022-11-03T21:33:25.272Z,99808.47
2022-11-03T21:36:28.358Z,99808.16
2022-11-03T21:39:31.725Z,99800.44
2022-11-03T21:42:53.371Z,99800.78
2022-11-03T21:46:11.068Z,99801.56
2022-11-03T21:49:33.157Z,99787.94
2022-11-03T21:52:35.940Z,99773.94
2022-11-03T21:55:39.020Z,99756.13
2022-11-03T21:58:42.056Z,99751.88
2022-11-03T22:01:45.275Z,99739.09
2022-11-03T22:04:48.480Z,99735.97
2022-11-03T22:07:51.223Z,99716.97
2022-11-03T22:10:54.388Z,99709.63
2022-11-03T22:13:59.264Z,99705.06
2022-11-03T22:17:02.137Z,99701.91
2022-11-03T22:20:24.151Z,99708.88
2022-11-03T22:23:45.927Z,99699.91
2022-11-03T22:26:57.542Z,99706.09
2022-11-03T22:30:19.235Z,99694.88
2022-11-03T22:33:22.049Z,99693.69
2022-11-03T22:36:25.128Z,99693.28
2022-11-03T22:39:46.557Z,99682.81
2022-11-03T22:43:08.651Z,99675.34
2022-11-03T22:46:13.055Z,99671.91
2022-11-03T22:49:16.063Z,99663.66
2022-11-03T22:52:18.853Z,99662.94
2022-11-03T22:55:21.968Z,99671.13
2022-11-03T22:58:29.350Z,99674.59
2022-11-03T23:01:33.876Z,99667.94
2022-11-03T23:04:36.779Z,99653.13
2022-11-03T23:07:41.663Z,99662.12
2022-11-03T23:10:44.619Z,99663.50
2022-11-03T23:14:01.995Z,99664.78
2022-11-03T23:17:04.870Z,99660.03
2022-11-03T23:20:27.475Z,99657.31
2022-11-03T23:23:49.754Z,99649.91
2022-11-03T23:26:52.774Z,99638.34
2022-11-03T23:29:55.565Z,99630.94
2022-11-03T23:33:00.526Z,99622.09
2022-11-03T23:36:07.653Z,99626.72
2022-11-03T23:39:15.201Z,99621.25
2022-11-03T23:42:17.922Z,99623.16
2022-11-03T23:45:40.434Z,99619.37
2022-11-03T23:48:46.072Z,99607.41
2022-11-03T23:51:49.255Z,99601.84
2022-11-03T23:54:53.460Z,99581.34
2022-11-03T23:58:15.529Z,99572.03
